OONCA EBCI-LFOB
Flight info
| Callsign | OONCA |
|---|---|
| Flight time | 0h 32m |
| Altitude | 19000 |
| Route | CIV M617 CMB |
| Aircraft | C25C/M-SDE2E3FGHRWXY/LB1 |
Departure
| Time | 2026-04-25 19:38 |
|---|---|
| Airport | Brussels South Charleroi Airport (EBCI) |
Arrival
| Time | 2026-04-25 20:11 |
|---|---|
| Airport | Beauvais-Tillé airport (LFOB) |
| Time | Latitude | Longitude | Altitude | Speed | Heading |
|---|---|---|---|---|---|
| 2026-04-25 19:16 | 50.45881 | 4.45515 | 614 ft | 0 kts | 245° |
| 2026-04-25 19:34 | 50.45881 | 4.45512 | 607 ft | 4 kts | 246° |
| 2026-04-25 19:34 | 50.45879 | 4.45481 | 612 ft | 3 kts | 304° |
| 2026-04-25 19:34 | 50.45910 | 4.45463 | 606 ft | 6 kts | 11° |
| 2026-04-25 19:34 | 50.45936 | 4.45521 | 615 ft | 8 kts | 65° |
| 2026-04-25 19:35 | 50.45963 | 4.45614 | 608 ft | 11 kts | 66° |
| 2026-04-25 19:35 | 50.45996 | 4.45727 | 607 ft | 12 kts | 65° |
| 2026-04-25 19:35 | 50.46030 | 4.45844 | 609 ft | 12 kts | 68° |
| 2026-04-25 19:35 | 50.46050 | 4.45969 | 607 ft | 12 kts | 82° |
| 2026-04-25 19:36 | 50.46067 | 4.46086 | 613 ft | 10 kts | 70° |
| 2026-04-25 19:36 | 50.46092 | 4.46174 | 607 ft | 8 kts | 65° |
| 2026-04-25 19:36 | 50.46116 | 4.46236 | 607 ft | 7 kts | 45° |
| 2026-04-25 19:36 | 50.46155 | 4.46244 | 607 ft | 5 kts | 335° |
| 2026-04-25 19:37 | 50.46162 | 4.46240 | 611 ft | 0 kts | 335° |
| 2026-04-25 19:37 | 50.46182 | 4.46225 | 607 ft | 9 kts | 335° |
| 2026-04-25 19:37 | 50.46228 | 4.46152 | 612 ft | 10 kts | 276° |
| 2026-04-25 19:38 | 50.46190 | 4.45986 | 611 ft | 48 kts | 246° |
| 2026-04-25 19:38 | 50.45887 | 4.44936 | 685 ft | 153 kts | 249° |
| 2026-04-25 19:38 | 50.45376 | 4.43050 | 1233 ft | 215 kts | 248° |
| 2026-04-25 19:38 | 50.44723 | 4.40711 | 2080 ft | 245 kts | 247° |
| 2026-04-25 19:39 | 50.43999 | 4.38269 | 2917 ft | 246 kts | 247° |
| 2026-04-25 19:39 | 50.43289 | 4.35827 | 3709 ft | 248 kts | 247° |
| 2026-04-25 19:39 | 50.42554 | 4.33278 | 3996 ft | 270 kts | 248° |
| 2026-04-25 19:39 | 50.41776 | 4.30573 | 3986 ft | 271 kts | 247° |
| 2026-04-25 19:40 | 50.41042 | 4.27912 | 4199 ft | 260 kts | 253° |
| 2026-04-25 19:40 | 50.40976 | 4.25182 | 4400 ft | 247 kts | 283° |
| 2026-04-25 19:40 | 50.41609 | 4.22760 | 4610 ft | 237 kts | 305° |
| 2026-04-25 19:40 | 50.42479 | 4.20603 | 4841 ft | 232 kts | 303° |
| 2026-04-25 19:41 | 50.43330 | 4.18479 | 5052 ft | 228 kts | 305° |
| 2026-04-25 19:41 | 50.44159 | 4.16422 | 5268 ft | 224 kts | 304° |
| 2026-04-25 19:41 | 50.44995 | 4.14356 | 5482 ft | 230 kts | 304° |
| 2026-04-25 19:41 | 50.45290 | 4.13616 | 5557 ft | 243 kts | 304° |
| 2026-04-25 19:42 | 50.46953 | 4.09463 | 6354 ft | 275 kts | 303° |
| 2026-04-25 19:42 | 50.47929 | 4.07014 | 6974 ft | 261 kts | 304° |
| 2026-04-25 19:42 | 50.48894 | 4.04603 | 7583 ft | 260 kts | 304° |
| 2026-04-25 19:42 | 50.49856 | 4.02204 | 8203 ft | 259 kts | 303° |
| 2026-04-25 19:43 | 50.50827 | 3.99772 | 8838 ft | 271 kts | 303° |
| 2026-04-25 19:43 | 50.51874 | 3.97158 | 9496 ft | 294 kts | 303° |
| 2026-04-25 19:43 | 50.52835 | 3.94208 | 10149 ft | 315 kts | 287° |
| 2026-04-25 19:43 | 50.52829 | 3.90682 | 10738 ft | 334 kts | 260° |
| 2026-04-25 19:44 | 50.52172 | 3.87099 | 11369 ft | 348 kts | 253° |
| 2026-04-25 19:44 | 50.51349 | 3.83500 | 12006 ft | 359 kts | 252° |
| 2026-04-25 19:44 | 50.50565 | 3.79771 | 12650 ft | 353 kts | 255° |
| 2026-04-25 19:44 | 50.49890 | 3.76219 | 13297 ft | 327 kts | 255° |
| 2026-04-25 19:45 | 50.49251 | 3.72921 | 13950 ft | 305 kts | 255° |
| 2026-04-25 19:45 | 50.48630 | 3.69830 | 14533 ft | 287 kts | 255° |
| 2026-04-25 19:45 | 50.48045 | 3.66918 | 15114 ft | 272 kts | 255° |
| 2026-04-25 19:45 | 50.47466 | 3.64077 | 15713 ft | 279 kts | 252° |
| 2026-04-25 19:46 | 50.46386 | 3.61429 | 16325 ft | 299 kts | 233° |
| 2026-04-25 19:46 | 50.45060 | 3.58816 | 16905 ft | 315 kts | 234° |
| 2026-04-25 19:46 | 50.43633 | 3.55991 | 16991 ft | 345 kts | 233° |
| 2026-04-25 19:46 | 50.42076 | 3.52916 | 17000 ft | 373 kts | 233° |
| 2026-04-25 19:47 | 50.40437 | 3.49700 | 17003 ft | 375 kts | 233° |
| 2026-04-25 19:47 | 50.38819 | 3.46512 | 17002 ft | 373 kts | 233° |
| 2026-04-25 19:47 | 50.37196 | 3.43320 | 17002 ft | 373 kts | 233° |
| 2026-04-25 19:47 | 50.35589 | 3.40148 | 17002 ft | 372 kts | 233° |
| 2026-04-25 19:48 | 50.33993 | 3.37019 | 17005 ft | 372 kts | 233° |
| 2026-04-25 19:48 | 50.32384 | 3.33858 | 17002 ft | 371 kts | 233° |
| 2026-04-25 19:48 | 50.30774 | 3.30709 | 17002 ft | 371 kts | 233° |
| 2026-04-25 19:48 | 50.29165 | 3.27552 | 16998 ft | 371 kts | 233° |
| 2026-04-25 19:49 | 50.27549 | 3.24395 | 16999 ft | 370 kts | 233° |
| 2026-04-25 19:49 | 50.27006 | 3.23332 | 16998 ft | 370 kts | 233° |
| 2026-04-25 19:49 | 50.24324 | 3.18099 | 16997 ft | 370 kts | 233° |
| 2026-04-25 19:49 | 50.22624 | 3.15074 | 16987 ft | 372 kts | 223° |
| 2026-04-25 19:50 | 50.18285 | 3.10629 | 16983 ft | 373 kts | 214° |
| 2026-04-25 19:50 | 50.16123 | 3.08492 | 16984 ft | 373 kts | 214° |
| 2026-04-25 19:50 | 50.13925 | 3.06320 | 16984 ft | 373 kts | 214° |
| 2026-04-25 19:51 | 50.11734 | 3.04152 | 16989 ft | 373 kts | 214° |
| 2026-04-25 19:51 | 50.09551 | 3.01979 | 16985 ft | 373 kts | 214° |
| 2026-04-25 19:51 | 50.07358 | 2.99811 | 16988 ft | 373 kts | 214° |
| 2026-04-25 19:51 | 50.05170 | 2.97648 | 16991 ft | 373 kts | 214° |
| 2026-04-25 19:52 | 50.02975 | 2.95484 | 16993 ft | 373 kts | 214° |
| 2026-04-25 19:52 | 50.00782 | 2.93320 | 16993 ft | 373 kts | 214° |
| 2026-04-25 19:52 | 49.98593 | 2.91162 | 16993 ft | 373 kts | 214° |
| 2026-04-25 19:52 | 49.96405 | 2.89011 | 16996 ft | 373 kts | 214° |
| 2026-04-25 19:53 | 49.94212 | 2.86852 | 16996 ft | 373 kts | 214° |
| 2026-04-25 19:53 | 49.92020 | 2.84703 | 16997 ft | 373 kts | 214° |
| 2026-04-25 19:53 | 49.89831 | 2.82552 | 16996 ft | 373 kts | 214° |
| 2026-04-25 19:53 | 49.87638 | 2.80406 | 16994 ft | 372 kts | 214° |
| 2026-04-25 19:54 | 49.85443 | 2.78257 | 16996 ft | 372 kts | 214° |
| 2026-04-25 19:54 | 49.83251 | 2.76114 | 16996 ft | 372 kts | 214° |
| 2026-04-25 19:54 | 49.81057 | 2.73973 | 16965 ft | 373 kts | 214° |
| 2026-04-25 19:54 | 49.80342 | 2.73277 | 16849 ft | 376 kts | 214° |
| 2026-04-25 19:55 | 49.76710 | 2.69729 | 16024 ft | 363 kts | 214° |
| 2026-04-25 19:55 | 49.74599 | 2.67671 | 15499 ft | 354 kts | 214° |
| 2026-04-25 19:55 | 49.72529 | 2.65663 | 14981 ft | 348 kts | 214° |
| 2026-04-25 19:55 | 49.70495 | 2.63681 | 14475 ft | 343 kts | 214° |
| 2026-04-25 19:56 | 49.68482 | 2.61732 | 13970 ft | 340 kts | 214° |
| 2026-04-25 19:56 | 49.66488 | 2.59794 | 13413 ft | 337 kts | 214° |
| 2026-04-25 19:56 | 49.64506 | 2.57879 | 12860 ft | 335 kts | 214° |
| 2026-04-25 19:56 | 49.62541 | 2.55973 | 12387 ft | 331 kts | 214° |
| 2026-04-25 19:57 | 49.60603 | 2.54102 | 11956 ft | 327 kts | 214° |
| 2026-04-25 19:57 | 49.58686 | 2.52252 | 11539 ft | 325 kts | 213° |
| 2026-04-25 19:57 | 49.56772 | 2.50402 | 11115 ft | 325 kts | 214° |
| 2026-04-25 19:57 | 49.55076 | 2.48159 | 10683 ft | 322 kts | 234° |
| 2026-04-25 19:58 | 49.53950 | 2.45195 | 10279 ft | 320 kts | 242° |
| 2026-04-25 19:58 | 49.52898 | 2.42177 | 9852 ft | 320 kts | 245° |
| 2026-04-25 19:58 | 49.52481 | 2.38870 | 9384 ft | 317 kts | 275° |
| 2026-04-25 19:58 | 49.53163 | 2.35674 | 8934 ft | 316 kts | 299° |
| 2026-04-25 19:59 | 49.54317 | 2.32805 | 8505 ft | 315 kts | 304° |
| 2026-04-25 19:59 | 49.55571 | 2.30042 | 8084 ft | 314 kts | 306° |
| 2026-04-25 19:59 | 49.56783 | 2.27454 | 7666 ft | 281 kts | 307° |
| 2026-04-25 19:59 | 49.57909 | 2.25071 | 7245 ft | 279 kts | 307° |
| 2026-04-25 20:00 | 49.59059 | 2.22621 | 6833 ft | 281 kts | 307° |
| 2026-04-25 20:00 | 49.59450 | 2.21797 | 6695 ft | 280 kts | 307° |
| 2026-04-25 20:00 | 49.61306 | 2.17840 | 5972 ft | 261 kts | 307° |
| 2026-04-25 20:00 | 49.62329 | 2.15643 | 5535 ft | 245 kts | 307° |
| 2026-04-25 20:01 | 49.63910 | 2.12208 | 4811 ft | 230 kts | 307° |
| 2026-04-25 20:01 | 49.64862 | 2.10123 | 4370 ft | 244 kts | 307° |
| 2026-04-25 20:01 | 49.65858 | 2.07941 | 3941 ft | 253 kts | 307° |
| 2026-04-25 20:02 | 49.66663 | 2.05506 | 3508 ft | 262 kts | 282° |
| 2026-04-25 20:02 | 49.66526 | 2.02735 | 3129 ft | 256 kts | 259° |
| 2026-04-25 20:02 | 49.66142 | 2.00125 | 3027 ft | 243 kts | 258° |
| 2026-04-25 20:02 | 49.65722 | 1.97631 | 3002 ft | 238 kts | 257° |
| 2026-04-25 20:03 | 49.65300 | 1.95162 | 3009 ft | 238 kts | 256° |
| 2026-04-25 20:03 | 49.64873 | 1.92691 | 3000 ft | 238 kts | 257° |
| 2026-04-25 20:03 | 49.64453 | 1.90229 | 2998 ft | 237 kts | 256° |
| 2026-04-25 20:03 | 49.64037 | 1.87797 | 2998 ft | 237 kts | 257° |
| 2026-04-25 20:04 | 49.63614 | 1.85346 | 3008 ft | 236 kts | 256° |
| 2026-04-25 20:04 | 49.62965 | 1.83038 | 3002 ft | 237 kts | 229° |
| 2026-04-25 20:04 | 49.61547 | 1.81907 | 3015 ft | 231 kts | 186° |
| 2026-04-25 20:04 | 49.59986 | 1.82225 | 3011 ft | 225 kts | 164° |
| 2026-04-25 20:05 | 49.58484 | 1.82854 | 3018 ft | 222 kts | 162° |
| 2026-04-25 20:05 | 49.57083 | 1.83772 | 3015 ft | 218 kts | 137° |
| 2026-04-25 20:05 | 49.56349 | 1.85740 | 3010 ft | 214 kts | 108° |
| 2026-04-25 20:05 | 49.55609 | 1.87751 | 3017 ft | 218 kts | 122° |
| 2026-04-25 20:06 | 49.54773 | 1.89708 | 3019 ft | 220 kts | 121° |
| 2026-04-25 20:06 | 49.53933 | 1.91657 | 3016 ft | 222 kts | 121° |
| 2026-04-25 20:06 | 49.53065 | 1.93674 | 2940 ft | 227 kts | 121° |
| 2026-04-25 20:06 | 49.52229 | 1.95597 | 2668 ft | 201 kts | 121° |
| 2026-04-25 20:07 | 49.51509 | 1.97243 | 2409 ft | 172 kts | 120° |
| 2026-04-25 20:07 | 49.50914 | 1.98632 | 2188 ft | 138 kts | 118° |
| 2026-04-25 20:07 | 49.50438 | 1.99716 | 2021 ft | 115 kts | 117° |
| 2026-04-25 20:07 | 49.50036 | 2.00664 | 1867 ft | 99 kts | 118° |
| 2026-04-25 20:08 | 49.49644 | 2.01598 | 1746 ft | 107 kts | 116° |
| 2026-04-25 20:08 | 49.49223 | 2.02571 | 1616 ft | 111 kts | 119° |
| 2026-04-25 20:08 | 49.48783 | 2.03550 | 1470 ft | 108 kts | 120° |
| 2026-04-25 20:08 | 49.48366 | 2.04480 | 1286 ft | 104 kts | 121° |
| 2026-04-25 20:09 | 49.47962 | 2.05403 | 1166 ft | 105 kts | 120° |
| 2026-04-25 20:09 | 49.47556 | 2.06369 | 1054 ft | 109 kts | 120° |
| 2026-04-25 20:09 | 49.47142 | 2.07378 | 883 ft | 113 kts | 119° |
| 2026-04-25 20:09 | 49.46706 | 2.08373 | 716 ft | 109 kts | 122° |
| 2026-04-25 20:10 | 49.46424 | 2.09002 | 616 ft | 107 kts | 122° |
| 2026-04-25 20:10 | 49.45888 | 2.10243 | 425 ft | 105 kts | 120° |
| 2026-04-25 20:10 | 49.45511 | 2.11121 | 337 ft | 89 kts | 121° |
| 2026-04-25 20:10 | 49.45208 | 2.11817 | 330 ft | 66 kts | 122° |
| 2026-04-25 20:11 | 49.45027 | 2.12237 | 324 ft | 32 kts | 123° |
| 2026-04-25 20:11 | 49.44925 | 2.12468 | 319 ft | 26 kts | 124° |
| 2026-04-25 20:11 | 49.44829 | 2.12691 | 313 ft | 20 kts | 123° |
| 2026-04-25 20:11 | 49.44772 | 2.12801 | 310 ft | 3 kts | 143° |
| 2026-04-25 20:12 | 49.44773 | 2.12808 | 310 ft | 1 kts | 46° |
| 2026-04-25 20:12 | 49.44805 | 2.12748 | 312 ft | 21 kts | 304° |
| 2026-04-25 20:12 | 49.44921 | 2.12484 | 319 ft | 30 kts | 304° |
| 2026-04-25 20:12 | 49.44995 | 2.12317 | 323 ft | 27 kts | 304° |
| 2026-04-25 20:13 | 49.45123 | 2.12020 | 329 ft | 24 kts | 303° |
| 2026-04-25 20:13 | 49.45211 | 2.11818 | 330 ft | 23 kts | 304° |
| 2026-04-25 20:13 | 49.45316 | 2.11575 | 331 ft | 28 kts | 303° |
| 2026-04-25 20:13 | 49.45416 | 2.11342 | 334 ft | 21 kts | 304° |
| 2026-04-25 20:14 | 49.45472 | 2.11321 | 335 ft | 11 kts | 37° |
| 2026-04-25 20:14 | 49.45557 | 2.11435 | 336 ft | 19 kts | 40° |
| 2026-04-25 20:14 | 49.45636 | 2.11546 | 340 ft | 14 kts | 43° |
| 2026-04-25 20:14 | 49.45708 | 2.11621 | 341 ft | 12 kts | 359° |
| 2026-04-25 20:15 | 49.45770 | 2.11548 | 339 ft | 12 kts | 309° |
| 2026-04-25 20:15 | 49.45793 | 2.11435 | 340 ft | 12 kts | 237° |
| 2026-04-25 20:15 | 49.45726 | 2.11344 | 340 ft | 14 kts | 219° |
| 2026-04-25 20:15 | 49.45710 | 2.11219 | 339 ft | 14 kts | 305° |
| 2026-04-25 20:16 | 49.45761 | 2.11103 | 345 ft | 12 kts | 304° |
| 2026-04-25 20:16 | 49.45812 | 2.11016 | 343 ft | 11 kts | 0° |
| 2026-04-25 20:16 | 49.45842 | 2.11052 | 343 ft | 3 kts | 60° |
| 2026-04-25 20:16 | 49.45851 | 2.11075 | 347 ft | 2 kts | 58° |
| 2026-04-25 20:17 | 49.45852 | 2.11077 | 346 ft | 0 kts | 58° |